createdAt,value
2018-02-24T00:01:46.662Z,30.70
2018-02-24T00:04:13.502Z,34.80
2018-02-24T00:06:40.258Z,35.43
2018-02-24T00:09:06.966Z,33.33
2018-02-24T00:11:33.648Z,34.83
2018-02-24T00:14:00.362Z,29.80
2018-02-24T00:16:27.054Z,39.40
2018-02-24T00:18:53.805Z,32.17
2018-02-24T00:21:20.532Z,37.80
2018-02-24T00:23:47.299Z,33.38
2018-02-24T00:26:14.004Z,36.40
2018-02-24T00:28:40.752Z,36.90
2018-02-24T00:31:07.499Z,35.00
2018-02-24T00:33:34.232Z,36.13
2018-02-24T00:36:01.006Z,33.30
2018-02-24T00:38:27.813Z,32.90
2018-02-24T00:40:54.534Z,30.83
2018-02-24T00:43:21.356Z,31.33
2018-02-24T00:45:48.249Z,33.40
2018-02-24T00:48:15.118Z,32.70
2018-02-24T00:50:42.108Z,37.70
2018-02-24T00:53:08.913Z,37.43
2018-02-24T00:55:35.607Z,36.50
2018-02-24T00:58:02.309Z,32.55
2018-02-24T01:00:29.091Z,34.20
2018-02-24T01:02:55.794Z,33.53
2018-02-24T01:05:22.493Z,37.93
2018-02-24T01:07:49.233Z,40.15
2018-02-24T01:10:15.935Z,33.00
2018-02-24T01:12:42.766Z,38.45
2018-02-24T01:15:09.530Z,37.23
2018-02-24T01:17:36.782Z,38.60
2018-02-24T01:20:03.539Z,32.07
2018-02-24T01:22:30.265Z,31.43
2018-02-24T01:24:57.040Z,41.47
2018-02-24T01:27:23.756Z,36.70
2018-02-24T01:29:50.512Z,36.50
2018-02-24T01:32:17.285Z,29.80
2018-02-24T01:34:44.141Z,39.00
2018-02-24T01:37:10.854Z,30.77
2018-02-24T01:39:37.725Z,30.40
2018-02-24T01:42:04.497Z,33.60
2018-02-24T01:44:31.366Z,33.80
2018-02-24T01:46:58.040Z,30.30
2018-02-24T01:49:24.888Z,34.00
2018-02-24T01:51:51.670Z,39.80
2018-02-24T01:54:18.454Z,33.33
2018-02-24T01:56:45.305Z,35.05
2018-02-24T01:59:12.061Z,32.75
2018-02-24T02:01:39.109Z,31.23
2018-02-24T02:04:06.082Z,37.10
2018-02-24T02:06:32.829Z,31.62
2018-02-24T02:08:59.572Z,36.25
2018-02-24T02:11:26.294Z,34.03
2018-02-24T02:13:53.034Z,32.25
2018-02-24T02:16:19.723Z,35.83
2018-02-24T02:18:46.567Z,32.90
2018-02-24T02:21:13.272Z,32.85
2018-02-24T02:23:40.112Z,32.05
2018-02-24T02:26:06.785Z,36.47
2018-02-24T02:28:33.527Z,32.75
2018-02-24T02:31:00.269Z,38.00
2018-02-24T02:33:27.007Z,36.10
2018-02-24T02:36:00.268Z,34.15
2018-02-24T02:38:27.298Z,35.47
2018-02-24T02:40:54.006Z,30.40
2018-02-24T02:43:20.681Z,34.53
2018-02-24T02:45:47.402Z,32.80
2018-02-24T02:48:14.175Z,36.58
2018-02-24T02:50:40.917Z,34.88
2018-02-24T02:53:07.660Z,39.85
2018-02-24T02:55:34.407Z,38.63
2018-02-24T02:58:01.191Z,35.10
2018-02-24T03:00:27.919Z,34.97
2018-02-24T03:02:54.715Z,38.20
2018-02-24T03:05:21.567Z,37.28
2018-02-24T03:07:48.332Z,34.65
2018-02-24T03:10:15.038Z,33.42
2018-02-24T03:12:41.896Z,37.40
2018-02-24T03:15:08.830Z,34.08
2018-02-24T03:17:35.611Z,41.33
2018-02-24T03:20:02.421Z,38.83
2018-02-24T03:22:29.141Z,35.10
2018-02-24T03:24:55.861Z,34.65
2018-02-24T03:27:22.653Z,38.08
2018-02-24T03:29:49.517Z,36.85
2018-02-24T03:32:16.307Z,39.63
2018-02-24T03:34:43.874Z,37.13
2018-02-24T03:37:10.723Z,34.05
2018-02-24T03:39:37.728Z,36.13
2018-02-24T03:42:04.469Z,34.85
2018-02-24T03:44:31.207Z,39.97
2018-02-24T03:46:57.936Z,41.13
2018-02-24T03:49:24.837Z,35.70
2018-02-24T03:51:51.821Z,36.05
2018-02-24T03:54:18.508Z,34.35
2018-02-24T03:56:45.205Z,37.58
2018-02-24T03:59:11.983Z,35.65
2018-02-24T04:01:38.688Z,35.40
2018-02-24T04:04:05.439Z,35.75
2018-02-24T04:06:32.290Z,40.50
2018-02-24T04:08:58.976Z,41.65
2018-02-24T04:11:25.748Z,43.00
2018-02-24T04:13:52.504Z,46.78
2018-02-24T04:16:19.314Z,37.97
2018-02-24T04:18:46.761Z,40.58
2018-02-24T04:21:13.462Z,40.58
2018-02-24T04:23:40.202Z,42.28
2018-02-24T04:26:06.910Z,38.08
2018-02-24T04:28:33.614Z,37.47
2018-02-24T04:31:00.314Z,39.20
2018-02-24T04:33:27.026Z,38.00
2018-02-24T04:35:53.822Z,35.50
2018-02-24T04:38:20.511Z,39.83
2018-02-24T04:40:47.342Z,38.90
2018-02-24T04:43:14.062Z,41.70
2018-02-24T04:45:41.114Z,44.58
2018-02-24T04:48:07.849Z,39.17
2018-02-24T04:50:35.732Z,39.50
2018-02-24T04:53:02.459Z,38.42
2018-02-24T04:55:29.176Z,44.08
2018-02-24T04:57:55.963Z,40.97
2018-02-24T05:00:22.692Z,38.30
2018-02-24T05:02:49.379Z,39.30
2018-02-24T05:05:16.139Z,45.58
2018-02-24T05:07:42.888Z,45.20
2018-02-24T05:10:09.713Z,38.78
2018-02-24T05:12:36.505Z,44.60
2018-02-24T05:15:03.296Z,44.13
2018-02-24T05:17:30.052Z,42.58
2018-02-24T05:19:56.745Z,40.15
2018-02-24T05:22:23.454Z,45.38
2018-02-24T05:24:50.354Z,43.08
2018-02-24T05:27:17.136Z,40.22
2018-02-24T05:29:43.884Z,43.60
2018-02-24T05:32:10.616Z,48.17
2018-02-24T05:34:37.369Z,41.83
2018-02-24T05:37:04.126Z,47.88
2018-02-24T05:39:30.899Z,45.05
2018-02-24T05:41:57.621Z,44.22
2018-02-24T05:44:24.435Z,40.60
2018-02-24T05:46:51.186Z,40.72
2018-02-24T05:49:17.877Z,41.50
2018-02-24T05:51:45.631Z,43.70
2018-02-24T05:54:12.345Z,44.28
2018-02-24T05:56:39.180Z,38.35
2018-02-24T05:59:05.945Z,44.83
2018-02-24T06:01:32.768Z,46.80
2018-02-24T06:03:59.463Z,43.22
2018-02-24T06:06:26.149Z,44.25
2018-02-24T06:08:52.864Z,43.90
2018-02-24T06:11:19.606Z,42.72
2018-02-24T06:13:46.489Z,40.45
2018-02-24T06:16:13.229Z,45.58
2018-02-24T06:18:40.036Z,44.42
2018-02-24T06:21:06.769Z,52.00
2018-02-24T06:23:33.499Z,44.00
2018-02-24T06:26:00.238Z,47.50
2018-02-24T06:28:26.949Z,43.97
2018-02-24T06:30:53.645Z,43.03
2018-02-24T06:33:20.330Z,41.40
2018-02-24T06:35:47.038Z,43.97
2018-02-24T06:38:13.739Z,46.70
2018-02-24T06:40:40.440Z,42.80
2018-02-24T06:43:07.420Z,43.65
2018-02-24T06:45:34.164Z,46.15
2018-02-24T06:48:00.988Z,54.72
2018-02-24T06:50:27.725Z,44.65
2018-02-24T06:52:54.448Z,40.47
2018-02-24T06:55:21.796Z,42.40
2018-02-24T06:57:48.563Z,43.28
2018-02-24T07:00:15.292Z,44.65
2018-02-24T07:02:42.017Z,44.50
2018-02-24T07:05:08.952Z,48.30
2018-02-24T07:07:35.695Z,46.20
2018-02-24T07:10:02.380Z,35.15
2018-02-24T07:12:29.155Z,44.85
2018-02-24T07:14:56.749Z,38.30
2018-02-24T07:17:23.460Z,44.75
2018-02-24T07:19:50.164Z,40.53
2018-02-24T07:22:16.977Z,47.28
2018-02-24T07:24:43.734Z,46.15
2018-02-24T07:27:10.470Z,45.38
2018-02-24T07:29:37.210Z,48.80
2018-02-24T07:32:04.133Z,46.40
2018-02-24T07:34:31.029Z,48.17
2018-02-24T07:36:57.794Z,46.47
2018-02-24T07:39:24.509Z,45.45
2018-02-24T07:41:51.320Z,42.75
2018-02-24T07:44:19.279Z,47.58
2018-02-24T07:46:46.112Z,46.90
2018-02-24T07:49:12.854Z,37.97
2018-02-24T07:51:39.591Z,43.40
2018-02-24T07:54:06.347Z,42.05
2018-02-24T07:56:33.067Z,40.05
2018-02-24T07:58:59.770Z,40.72
2018-02-24T08:01:26.509Z,39.83
2018-02-24T08:03:53.213Z,47.05
2018-02-24T08:06:20.804Z,42.10
2018-02-24T08:08:47.708Z,46.25
2018-02-24T08:11:14.549Z,43.53
2018-02-24T08:13:41.394Z,46.53
2018-02-24T08:16:08.139Z,42.17
2018-02-24T08:18:34.872Z,49.70
2018-02-24T08:21:01.627Z,42.00
2018-02-24T08:23:28.400Z,41.00
2018-02-24T08:25:55.157Z,40.40
2018-02-24T08:28:21.916Z,42.57
2018-02-24T08:30:49.498Z,45.33
2018-02-24T08:33:16.284Z,45.27
2018-02-24T08:35:43.190Z,47.67
2018-02-24T08:38:10.743Z,43.07
2018-02-24T08:40:37.476Z,43.10
2018-02-24T08:43:04.180Z,43.40
2018-02-24T08:45:31.381Z,43.60
2018-02-24T08:47:58.125Z,44.70
2018-02-24T08:50:25.011Z,39.60
2018-02-24T08:52:51.783Z,49.30
2018-02-24T08:55:19.678Z,44.17
2018-02-24T08:57:46.614Z,46.30
2018-02-24T09:00:13.387Z,40.07
2018-02-24T09:02:40.098Z,41.83
2018-02-24T09:05:06.819Z,41.23
2018-02-24T09:07:33.617Z,43.40
2018-02-24T09:10:00.324Z,41.07
2018-02-24T09:12:27.113Z,38.17
2018-02-24T09:14:58.698Z,37.43
2018-02-24T09:17:25.447Z,42.47
2018-02-24T09:19:53.858Z,41.60
2018-02-24T09:22:23.327Z,40.87
2018-02-24T09:24:50.006Z,38.13
2018-02-24T09:27:16.699Z,37.90
2018-02-24T09:29:46.317Z,41.80
2018-02-24T09:32:15.739Z,43.27
2018-02-24T09:34:46.260Z,36.10
2018-02-24T09:37:18.337Z,37.30
2018-02-24T09:39:45.286Z,40.80
2018-02-24T09:42:12.284Z,41.53
2018-02-24T09:44:39.284Z,37.20
2018-02-24T09:47:06.838Z,36.20
2018-02-24T09:49:35.013Z,42.93
2018-02-24T09:52:01.932Z,40.80
2018-02-24T09:54:28.736Z,37.43
2018-02-24T09:56:55.518Z,38.70
2018-02-24T09:59:22.266Z,37.23
2018-02-24T10:01:49.106Z,36.20
2018-02-24T10:04:15.940Z,37.73
2018-02-24T10:06:42.709Z,36.93
2018-02-24T10:09:09.724Z,37.00
2018-02-24T10:11:36.410Z,39.17
2018-02-24T10:14:05.121Z,34.23
2018-02-24T10:16:31.818Z,36.87
2018-02-24T10:18:58.579Z,32.47
2018-02-24T10:21:25.310Z,39.53
2018-02-24T10:23:52.530Z,33.37
2018-02-24T10:26:19.361Z,33.60
2018-02-24T10:28:46.061Z,38.10
2018-02-24T10:31:12.858Z,36.67
2018-02-24T10:33:39.569Z,32.00
2018-02-24T10:36:07.210Z,36.93
2018-02-24T10:38:34.107Z,29.43
2018-02-24T10:41:01.130Z,33.10
2018-02-24T10:43:27.899Z,33.87
2018-02-24T10:45:54.956Z,26.43
2018-02-24T10:48:22.132Z,30.30
2018-02-24T10:50:49.007Z,32.73
2018-02-24T10:53:15.743Z,36.50
2018-02-24T10:55:42.691Z,30.50
2018-02-24T10:58:09.422Z,33.60
2018-02-24T11:00:36.430Z,30.47
2018-02-24T11:03:03.115Z,31.30
2018-02-24T11:05:29.817Z,31.00
2018-02-24T11:07:56.542Z,30.57
2018-02-24T11:10:24.101Z,30.43
2018-02-24T11:12:50.827Z,29.53
2018-02-24T11:15:17.562Z,29.57
2018-02-24T11:17:44.481Z,28.33
2018-02-24T11:20:11.311Z,28.17
2018-02-24T11:22:38.002Z,27.73
2018-02-24T11:25:04.760Z,27.87
2018-02-24T11:27:31.490Z,28.50
2018-02-24T11:29:58.250Z,27.50
2018-02-24T11:32:25.098Z,27.30
2018-02-24T11:34:51.890Z,25.20
2018-02-24T11:37:18.597Z,29.43
2018-02-24T11:39:45.312Z,27.07
2018-02-24T11:42:12.067Z,25.13
2018-02-24T11:44:38.893Z,27.10
2018-02-24T11:47:05.616Z,26.70
2018-02-24T11:49:32.440Z,23.13
2018-02-24T11:51:59.196Z,24.53
2018-02-24T11:54:26.252Z,22.73
2018-02-24T11:56:52.937Z,24.63
2018-02-24T11:59:19.678Z,26.00
2018-02-24T12:01:46.407Z,24.90
2018-02-24T12:04:13.094Z,25.50
2018-02-24T12:06:39.788Z,24.97
2018-02-24T12:09:06.514Z,23.93
2018-02-24T12:11:33.298Z,25.67
2018-02-24T12:14:00.107Z,25.30
2018-02-24T12:16:26.923Z,22.77
2018-02-24T12:18:53.617Z,24.00
2018-02-24T12:21:20.344Z,30.23
2018-02-24T12:23:47.061Z,28.50
2018-02-24T12:26:14.514Z,26.50
2018-02-24T12:28:41.297Z,25.40
2018-02-24T12:31:08.030Z,25.70
2018-02-24T12:33:34.760Z,22.20
2018-02-24T12:36:01.596Z,23.67
2018-02-24T12:38:28.340Z,25.37
2018-02-24T12:40:55.188Z,21.13
2018-02-24T12:43:21.922Z,24.87
2018-02-24T12:45:48.607Z,21.60
2018-02-24T12:48:15.396Z,24.13
2018-02-24T12:50:42.156Z,24.53
2018-02-24T12:53:08.914Z,24.63
2018-02-24T12:55:35.647Z,23.33
2018-02-24T12:58:03.548Z,20.07
2018-02-24T13:00:30.405Z,26.07
2018-02-24T13:02:57.123Z,24.93
2018-02-24T13:05:24.346Z,25.57
2018-02-24T13:07:51.415Z,22.30
2018-02-24T13:10:18.165Z,26.03
2018-02-24T13:12:45.278Z,20.73
2018-02-24T13:15:11.995Z,25.40
2018-02-24T13:17:38.679Z,25.97
2018-02-24T13:20:05.493Z,18.33
2018-02-24T13:22:32.314Z,20.93
2018-02-24T13:24:59.033Z,17.97
2018-02-24T13:27:25.789Z,21.37
2018-02-24T13:29:52.557Z,25.67
2018-02-24T13:32:19.416Z,21.43
2018-02-24T13:34:46.099Z,22.93
2018-02-24T13:37:12.846Z,20.30
2018-02-24T13:39:39.560Z,22.33
2018-02-24T13:42:06.297Z,21.73
2018-02-24T13:44:33.025Z,19.90
2018-02-24T13:46:59.814Z,21.10
2018-02-24T13:49:26.723Z,21.07
2018-02-24T13:51:53.429Z,21.83
2018-02-24T13:54:20.142Z,19.20
2018-02-24T13:56:46.876Z,21.53
2018-02-24T13:59:13.577Z,22.50
2018-02-24T14:01:40.253Z,20.50
2018-02-24T14:04:06.944Z,19.33
2018-02-24T14:06:33.675Z,18.43
2018-02-24T14:09:00.490Z,20.57
2018-02-24T14:11:28.096Z,20.23
2018-02-24T14:13:54.910Z,19.97
2018-02-24T14:16:21.642Z,19.23
2018-02-24T14:18:48.546Z,25.13
2018-02-24T14:21:15.291Z,23.10
2018-02-24T14:23:42.006Z,19.53
2018-02-24T14:26:08.784Z,25.73
2018-02-24T14:28:35.544Z,19.40
2018-02-24T14:31:02.351Z,19.13
2018-02-24T14:33:29.193Z,17.67
2018-02-24T14:35:56.065Z,20.03
2018-02-24T14:38:22.862Z,21.63
2018-02-24T14:40:49.639Z,18.23
2018-02-24T14:43:16.360Z,17.87
2018-02-24T14:45:43.297Z,19.60
2018-02-24T14:48:10.339Z,17.03
2018-02-24T14:50:37.222Z,17.80
2018-02-24T14:53:03.910Z,15.77
2018-02-24T14:55:30.763Z,16.80
2018-02-24T14:57:57.566Z,17.13
2018-02-24T15:00:24.411Z,13.03
2018-02-24T15:02:51.141Z,15.90
2018-02-24T15:05:17.877Z,12.83
2018-02-24T15:07:44.624Z,13.90
2018-02-24T15:10:11.359Z,14.97
2018-02-24T15:12:38.298Z,12.87
2018-02-24T15:15:05.136Z,19.13
2018-02-24T15:17:32.018Z,20.37
2018-02-24T15:19:58.784Z,14.63
2018-02-24T15:22:25.584Z,17.80
2018-02-24T15:24:52.389Z,21.80
2018-02-24T15:27:19.120Z,16.33
2018-02-24T15:29:45.884Z,19.30
2018-02-24T15:32:12.608Z,15.43
2018-02-24T15:34:39.378Z,14.40
2018-02-24T15:37:06.116Z,13.83
2018-02-24T15:39:32.813Z,14.40
2018-02-24T15:41:59.602Z,17.40
2018-02-24T15:44:26.366Z,17.87
2018-02-24T15:46:53.101Z,14.23
2018-02-24T15:49:20.063Z,17.70
2018-02-24T15:51:46.806Z,21.13
2018-02-24T15:54:13.504Z,15.20
2018-02-24T15:56:40.418Z,16.43
2018-02-24T15:59:08.057Z,20.93
2018-02-24T16:01:34.822Z,14.80
2018-02-24T16:04:01.541Z,16.47
2018-02-24T16:06:28.466Z,19.70
2018-02-24T16:08:55.208Z,15.47
2018-02-24T16:11:22.032Z,23.13
2018-02-24T16:13:48.911Z,16.47
2018-02-24T16:16:15.737Z,17.53
2018-02-24T16:18:42.718Z,15.77
2018-02-24T16:21:09.406Z,18.77
2018-02-24T16:23:36.203Z,18.70
2018-02-24T16:26:03.394Z,16.40
2018-02-24T16:28:30.187Z,19.30
2018-02-24T16:30:56.887Z,13.77
2018-02-24T16:33:23.637Z,19.37
2018-02-24T16:35:50.302Z,17.60
2018-02-24T16:38:17.057Z,14.40
2018-02-24T16:40:43.840Z,16.17
2018-02-24T16:43:10.562Z,16.47
2018-02-24T16:45:37.277Z,14.93
2018-02-24T16:48:04.010Z,10.93
2018-02-24T16:50:30.774Z,15.13
2018-02-24T16:52:57.538Z,16.27
2018-02-24T16:55:24.681Z,12.20
2018-02-24T16:57:51.381Z,11.77
2018-02-24T17:00:18.520Z,12.50
2018-02-24T17:02:45.235Z,12.60
2018-02-24T17:05:12.078Z,12.27
2018-02-24T17:07:38.826Z,12.03
2018-02-24T17:10:05.936Z,13.20
2018-02-24T17:12:32.669Z,14.07
2018-02-24T17:14:59.387Z,14.30
2018-02-24T17:17:26.206Z,12.20
2018-02-24T17:19:52.923Z,14.60
2018-02-24T17:22:19.901Z,14.00
2018-02-24T17:24:46.661Z,10.83
2018-02-24T17:27:13.706Z,14.33
2018-02-24T17:29:40.499Z,16.90
2018-02-24T17:32:07.266Z,12.20
2018-02-24T17:34:34.064Z,14.33
2018-02-24T17:37:00.768Z,13.20
2018-02-24T17:39:27.578Z,17.43
2018-02-24T17:41:54.289Z,13.17
2018-02-24T17:44:20.997Z,13.30
2018-02-24T17:46:47.715Z,14.20
2018-02-24T17:49:14.409Z,15.43
2018-02-24T17:51:41.213Z,14.13
2018-02-24T17:54:08.104Z,12.90
2018-02-24T17:56:35.355Z,15.20
2018-02-24T17:59:02.138Z,16.60
2018-02-24T18:01:28.873Z,15.30
2018-02-24T18:03:55.785Z,16.47
2018-02-24T18:06:22.556Z,15.27
2018-02-24T18:08:49.447Z,12.37
2018-02-24T18:11:16.209Z,13.53
2018-02-24T18:13:42.912Z,11.83
2018-02-24T18:16:09.675Z,13.10
2018-02-24T18:18:36.394Z,13.50
2018-02-24T18:21:03.136Z,12.73
2018-02-24T18:23:29.842Z,11.20
2018-02-24T18:25:57.470Z,12.47
2018-02-24T18:28:24.467Z,13.33
2018-02-24T18:30:51.754Z,12.37
2018-02-24T18:33:18.789Z,12.17
2018-02-24T18:35:45.503Z,14.07
2018-02-24T18:38:12.229Z,12.07
2018-02-24T18:40:39.095Z,16.13
2018-02-24T18:43:05.966Z,11.63
2018-02-24T18:45:32.712Z,10.63
2018-02-24T18:47:59.736Z,19.03
2018-02-24T18:50:26.470Z,10.83
2018-02-24T18:52:53.181Z,10.43
2018-02-24T18:55:20.156Z,11.73
2018-02-24T18:57:46.977Z,12.07
2018-02-24T19:00:13.678Z,10.83
2018-02-24T19:02:40.521Z,12.87
2018-02-24T19:05:07.340Z,11.47
2018-02-24T19:07:34.144Z,11.50
2018-02-24T19:10:00.995Z,11.63
2018-02-24T19:12:27.761Z,15.57
2018-02-24T19:14:54.625Z,12.23
2018-02-24T19:17:21.533Z,10.60
2018-02-24T19:19:48.277Z,9.80
2018-02-24T19:22:15.136Z,10.63
2018-02-24T19:24:41.972Z,8.90
2018-02-24T19:27:08.985Z,12.13
2018-02-24T19:29:35.709Z,10.23
2018-02-24T19:32:02.483Z,9.90
2018-02-24T19:34:29.451Z,12.73
2018-02-24T19:36:56.198Z,9.40
2018-02-24T19:39:22.920Z,10.77
2018-02-24T19:41:49.634Z,10.67
2018-02-24T19:44:16.351Z,11.80
2018-02-24T19:46:43.299Z,8.33
2018-02-24T19:49:10.071Z,8.37
2018-02-24T19:51:36.900Z,10.53
2018-02-24T19:54:03.899Z,11.30
2018-02-24T19:56:30.797Z,11.13
2018-02-24T19:58:57.574Z,10.30
2018-02-24T20:01:24.290Z,9.43
2018-02-24T20:03:51.293Z,8.93
2018-02-24T20:06:18.142Z,9.17
2018-02-24T20:08:44.900Z,13.90
2018-02-24T20:11:11.693Z,11.73
2018-02-24T20:13:40.179Z,11.10
2018-02-24T20:16:07.220Z,8.27
2018-02-24T20:18:34.065Z,10.00
2018-02-24T20:21:02.059Z,10.57
2018-02-24T20:23:28.765Z,12.63
2018-02-24T20:25:58.731Z,11.30
2018-02-24T20:28:25.490Z,9.43
2018-02-24T20:30:52.188Z,9.33
2018-02-24T20:33:18.903Z,10.93
2018-02-24T20:35:45.712Z,9.77
2018-02-24T20:38:13.497Z,11.90
2018-02-24T20:40:40.195Z,10.80
2018-02-24T20:43:06.988Z,11.90
2018-02-24T20:45:33.739Z,10.60
2018-02-24T20:48:01.474Z,13.07
2018-02-24T20:50:28.195Z,12.30
2018-02-24T20:52:54.963Z,12.50
2018-02-24T20:55:21.728Z,10.53
2018-02-24T20:57:48.462Z,11.00
2018-02-24T21:00:15.304Z,10.80
2018-02-24T21:02:42.280Z,10.33
2018-02-24T21:05:09.066Z,9.57
2018-02-24T21:07:35.769Z,9.57
2018-02-24T21:10:02.589Z,11.40
2018-02-24T21:12:29.403Z,7.77
2018-02-24T21:14:56.119Z,10.80
2018-02-24T21:17:23.164Z,9.33
2018-02-24T21:19:50.211Z,11.10
2018-02-24T21:22:17.026Z,9.07
2018-02-24T21:24:43.749Z,8.77
2018-02-24T21:27:10.497Z,7.20
2018-02-24T21:29:37.330Z,6.10
2018-02-24T21:32:04.161Z,8.18
2018-02-24T21:34:30.842Z,9.20
2018-02-24T21:36:57.582Z,9.03
2018-02-24T21:39:24.375Z,9.73
2018-02-24T21:41:51.182Z,6.10
2018-02-24T21:44:18.025Z,7.53
2018-02-24T21:46:44.716Z,6.27
2018-02-24T21:49:11.531Z,7.43
2018-02-24T21:51:38.397Z,7.77
2018-02-24T21:54:05.174Z,7.20
2018-02-24T21:56:31.985Z,7.23
2018-02-24T21:58:58.698Z,7.20
2018-02-24T22:01:25.381Z,8.43
2018-02-24T22:03:52.085Z,6.53
2018-02-24T22:06:18.782Z,5.97
2018-02-24T22:08:45.481Z,8.97
2018-02-24T22:11:12.214Z,8.40
2018-02-24T22:13:38.892Z,6.20
2018-02-24T22:16:05.594Z,7.10
2018-02-24T22:18:32.289Z,10.40
2018-02-24T22:20:59.177Z,9.43
2018-02-24T22:23:25.882Z,6.00
2018-02-24T22:25:52.618Z,8.83
2018-02-24T22:28:19.313Z,6.67
2018-02-24T22:30:46.085Z,6.80
2018-02-24T22:33:12.756Z,6.60
2018-02-24T22:35:39.479Z,8.83
2018-02-24T22:38:08.431Z,7.10
2018-02-24T22:40:36.453Z,7.00
2018-02-24T22:43:03.153Z,7.37
2018-02-24T22:45:29.895Z,6.53
2018-02-24T22:48:02.316Z,11.10
2018-02-24T22:50:29.043Z,7.23
2018-02-24T22:52:55.791Z,6.10
2018-02-24T22:55:22.523Z,6.47
2018-02-24T22:57:49.292Z,7.03
2018-02-24T23:00:16.321Z,7.20
2018-02-24T23:02:43.156Z,6.53
2018-02-24T23:05:10.306Z,8.70
2018-02-24T23:07:37.503Z,7.10
2018-02-24T23:10:04.421Z,7.80
2018-02-24T23:12:31.320Z,9.33
2018-02-24T23:14:58.116Z,8.15
2018-02-24T23:17:24.961Z,8.25
2018-02-24T23:19:51.681Z,8.13
2018-02-24T23:22:18.429Z,12.52
2018-02-24T23:24:46.111Z,10.73
2018-02-24T23:27:12.787Z,7.23
2018-02-24T23:29:40.076Z,7.47
2018-02-24T23:32:06.811Z,11.13
2018-02-24T23:34:33.531Z,11.35
2018-02-24T23:37:00.325Z,10.52
2018-02-24T23:39:27.077Z,7.90
2018-02-24T23:41:53.841Z,10.02
2018-02-24T23:44:20.543Z,8.27
2018-02-24T23:46:47.256Z,9.90
2018-02-24T23:49:14.114Z,6.95
2018-02-24T23:51:40.856Z,12.20
2018-02-24T23:54:07.517Z,9.68
2018-02-24T23:56:34.229Z,10.68
2018-02-24T23:59:00.948Z,7.10
